createdAt,value
2019-03-27T00:00:09.775Z,7.50
2019-03-27T00:02:57.735Z,7.50
2019-03-27T00:05:26.152Z,7.60
2019-03-27T00:07:54.591Z,7.50
2019-03-27T00:10:23.018Z,7.50
2019-03-27T00:12:51.500Z,7.50
2019-03-27T00:15:19.912Z,7.50
2019-03-27T00:17:48.387Z,7.50
2019-03-27T00:20:16.880Z,7.50
2019-03-27T00:22:45.290Z,7.50
2019-03-27T00:25:13.787Z,7.60
2019-03-27T00:27:42.179Z,7.50
2019-03-27T00:30:11.165Z,7.50
2019-03-27T00:32:39.561Z,7.60
2019-03-27T00:35:08.956Z,7.60
2019-03-27T00:37:37.451Z,7.40
2019-03-27T00:40:07.104Z,7.20
2019-03-27T00:42:35.731Z,7.20
2019-03-27T00:45:09.334Z,7.20
2019-03-27T00:47:37.815Z,7.30
2019-03-27T00:50:07.479Z,7.30
2019-03-27T00:52:35.970Z,7.30
2019-03-27T00:55:07.002Z,7.30
2019-03-27T00:57:35.405Z,7.30
2019-03-27T01:00:07.048Z,7.30
2019-03-27T01:02:35.456Z,7.30
2019-03-27T01:05:05.614Z,7.40
2019-03-27T01:07:34.007Z,7.20
2019-03-27T01:10:02.496Z,7.20
2019-03-27T01:12:30.904Z,7.10
2019-03-27T01:14:59.311Z,7.20
2019-03-27T01:17:27.711Z,7.20
2019-03-27T01:19:56.127Z,7.20
2019-03-27T01:22:24.549Z,7.20
2019-03-27T01:24:52.960Z,7.20
2019-03-27T01:27:21.393Z,7.20
2019-03-27T01:29:49.799Z,7.20
2019-03-27T01:32:18.223Z,7.20
2019-03-27T01:34:46.635Z,7.10
2019-03-27T01:37:15.053Z,7.20
2019-03-27T01:39:43.455Z,7.20
2019-03-27T01:42:11.872Z,7.20
2019-03-27T01:44:40.275Z,7.20
2019-03-27T01:47:08.683Z,7.20
2019-03-27T01:49:37.115Z,7.20
2019-03-27T01:52:07.905Z,7.20
2019-03-27T01:54:35.649Z,7.00
2019-03-27T01:57:04.133Z,7.00
2019-03-27T01:59:32.595Z,7.00
2019-03-27T02:02:01.005Z,7.00
2019-03-27T02:04:29.411Z,7.00
2019-03-27T02:06:57.808Z,7.00
2019-03-27T02:09:26.255Z,6.90
2019-03-27T02:11:54.659Z,7.00
2019-03-27T02:14:23.083Z,7.00
2019-03-27T02:16:51.479Z,7.00
2019-03-27T02:19:19.968Z,7.00
2019-03-27T02:21:48.383Z,7.00
2019-03-27T02:24:16.795Z,6.90
2019-03-27T02:26:45.199Z,6.90
2019-03-27T02:29:13.627Z,6.90
2019-03-27T02:31:42.042Z,6.90
2019-03-27T02:34:10.433Z,6.90
2019-03-27T02:36:38.871Z,6.90
2019-03-27T02:39:07.462Z,7.00
2019-03-27T02:41:35.871Z,6.90
2019-03-27T02:44:04.422Z,6.80
2019-03-27T02:46:32.849Z,6.80
2019-03-27T02:49:01.257Z,6.80
2019-03-27T02:51:29.674Z,6.90
2019-03-27T02:53:58.067Z,6.90
2019-03-27T02:56:26.538Z,6.90
2019-03-27T02:58:54.911Z,6.90
2019-03-27T03:01:23.324Z,6.90
2019-03-27T03:03:51.768Z,6.90
2019-03-27T03:06:20.171Z,6.90
2019-03-27T03:08:48.575Z,6.90
2019-03-27T03:11:16.985Z,6.90
2019-03-27T03:13:45.439Z,6.90
2019-03-27T03:16:13.856Z,6.90
2019-03-27T03:18:42.250Z,6.90
2019-03-27T03:21:10.673Z,6.80
2019-03-27T03:23:39.091Z,6.80
2019-03-27T03:26:07.498Z,6.80
2019-03-27T03:28:35.901Z,6.80
2019-03-27T03:31:04.330Z,6.80
2019-03-27T03:33:32.753Z,6.80
2019-03-27T03:36:01.222Z,6.80
2019-03-27T03:38:29.637Z,6.90
2019-03-27T03:40:58.049Z,6.90
2019-03-27T03:43:26.534Z,6.90
2019-03-27T03:45:54.927Z,6.90
2019-03-27T03:48:23.347Z,6.80
2019-03-27T03:50:54.250Z,6.80
2019-03-27T03:53:23.203Z,6.80
2019-03-27T03:55:52.648Z,6.80
2019-03-27T03:58:24.406Z,6.80
2019-03-27T04:00:53.671Z,6.70
2019-03-27T04:03:25.151Z,6.70
2019-03-27T04:05:53.569Z,6.70
2019-03-27T04:08:21.996Z,6.60
2019-03-27T04:10:50.403Z,6.60
2019-03-27T04:13:18.835Z,6.40
2019-03-27T04:15:47.414Z,6.40
2019-03-27T04:18:15.820Z,6.40
2019-03-27T04:20:44.230Z,6.40
2019-03-27T04:23:12.664Z,6.30
2019-03-27T04:26:07.210Z,6.20
2019-03-27T04:28:11.225Z,6.20
2019-03-27T04:30:39.679Z,6.10
2019-03-27T04:33:08.135Z,6.00
2019-03-27T04:35:36.549Z,5.90
2019-03-27T04:38:05.016Z,5.80
2019-03-27T04:40:33.490Z,5.80
2019-03-27T04:43:01.910Z,5.70
2019-03-27T04:45:30.352Z,5.70
2019-03-27T04:47:58.783Z,5.70
2019-03-27T04:50:27.197Z,5.70
2019-03-27T04:52:55.602Z,5.70
2019-03-27T04:55:23.999Z,5.70
2019-03-27T04:57:52.436Z,5.60
2019-03-27T05:00:21.478Z,5.50
2019-03-27T05:02:49.898Z,5.50
2019-03-27T05:05:18.322Z,5.40
2019-03-27T05:07:46.746Z,5.30
2019-03-27T05:10:15.315Z,5.30
2019-03-27T05:12:43.727Z,5.20
2019-03-27T05:15:12.211Z,5.20
2019-03-27T05:17:46.234Z,5.30
2019-03-27T05:20:10.958Z,5.20
2019-03-27T05:22:39.372Z,5.10
2019-03-27T05:25:08.529Z,5.00
2019-03-27T05:27:36.918Z,5.10
2019-03-27T05:30:06.772Z,5.10
2019-03-27T05:32:35.170Z,5.00
2019-03-27T05:35:05.314Z,5.00
2019-03-27T05:37:33.743Z,5.00
2019-03-27T05:40:02.184Z,5.00
2019-03-27T05:42:30.629Z,5.00
2019-03-27T05:44:59.071Z,5.00
2019-03-27T05:47:27.479Z,5.10
2019-03-27T05:49:55.895Z,5.30
2019-03-27T05:52:24.322Z,5.30
2019-03-27T05:54:52.732Z,5.30
2019-03-27T05:57:21.131Z,5.30
2019-03-27T05:59:49.559Z,5.40
2019-03-27T06:02:17.962Z,5.60
2019-03-27T06:04:46.382Z,5.70
2019-03-27T06:07:14.778Z,5.80
2019-03-27T06:09:43.194Z,5.80
2019-03-27T06:12:11.591Z,5.90
2019-03-27T06:14:40.014Z,6.00
2019-03-27T06:17:08.406Z,6.20
2019-03-27T06:19:36.815Z,6.30
2019-03-27T06:22:05.211Z,6.40
2019-03-27T06:24:33.662Z,6.50
2019-03-27T06:27:02.114Z,6.50
2019-03-27T06:29:33.547Z,6.40
2019-03-27T06:32:02.453Z,6.30
2019-03-27T06:34:30.879Z,6.30
2019-03-27T06:36:59.290Z,6.20
2019-03-27T06:39:27.691Z,6.10
2019-03-27T06:41:56.102Z,6.00
2019-03-27T06:44:24.531Z,5.90
2019-03-27T06:46:52.920Z,5.90
2019-03-27T06:49:21.346Z,5.90
2019-03-27T06:51:49.752Z,5.80
2019-03-27T06:54:18.143Z,5.90
2019-03-27T06:56:46.576Z,6.00
2019-03-27T06:59:14.989Z,6.10
2019-03-27T07:01:43.472Z,6.30
2019-03-27T07:04:11.867Z,6.50
2019-03-27T07:06:40.273Z,6.60
2019-03-27T07:09:09.355Z,6.70
2019-03-27T07:11:37.777Z,6.80
2019-03-27T07:14:06.193Z,6.90
2019-03-27T07:16:34.591Z,7.30
2019-03-27T07:19:03.012Z,7.60
2019-03-27T07:21:31.405Z,7.70
2019-03-27T07:23:59.816Z,7.80
2019-03-27T07:26:28.242Z,8.00
2019-03-27T07:28:56.663Z,8.40
2019-03-27T07:31:25.106Z,8.50
2019-03-27T07:33:53.491Z,8.60
2019-03-27T07:36:21.898Z,8.80
2019-03-27T07:38:50.315Z,9.00
2019-03-27T07:41:18.726Z,9.20
2019-03-27T07:43:47.127Z,9.40
2019-03-27T07:46:15.578Z,9.70
2019-03-27T07:48:53.977Z,9.70
2019-03-27T07:51:14.152Z,9.70
2019-03-27T07:53:42.555Z,9.90
2019-03-27T07:56:10.974Z,10.20
2019-03-27T07:58:39.383Z,10.50
2019-03-27T08:01:07.800Z,10.70
2019-03-27T08:03:36.202Z,10.70
2019-03-27T08:06:05.101Z,10.80
2019-03-27T08:08:33.511Z,11.10
2019-03-27T08:11:01.948Z,11.40
2019-03-27T08:13:30.394Z,11.70
2019-03-27T08:15:58.871Z,11.90
2019-03-27T08:18:27.259Z,12.20
2019-03-27T08:20:55.658Z,12.40
2019-03-27T08:23:24.081Z,12.60
2019-03-27T08:25:52.483Z,12.80
2019-03-27T08:28:20.902Z,12.60
2019-03-27T08:30:49.324Z,12.80
2019-03-27T08:33:17.759Z,13.00
2019-03-27T08:35:46.161Z,13.10
2019-03-27T08:38:15.153Z,13.00
2019-03-27T08:40:43.814Z,13.30
2019-03-27T08:43:21.151Z,13.50
2019-03-27T08:45:42.440Z,13.90
2019-03-27T08:48:10.871Z,14.00
2019-03-27T08:50:39.284Z,13.80
2019-03-27T08:53:07.705Z,13.70
2019-03-27T08:55:36.185Z,14.00
2019-03-27T08:58:04.591Z,13.90
2019-03-27T09:00:47.863Z,14.10
2019-03-27T09:03:16.613Z,14.30
2019-03-27T09:05:45.002Z,14.40
2019-03-27T09:08:13.723Z,14.50
2019-03-27T09:10:42.427Z,14.50
2019-03-27T09:13:10.876Z,14.60
2019-03-27T09:15:39.254Z,14.60
2019-03-27T09:18:07.685Z,14.80
2019-03-27T09:20:36.091Z,15.00
2019-03-27T09:23:04.511Z,14.90
2019-03-27T09:25:32.923Z,15.10
2019-03-27T09:28:01.351Z,15.20
2019-03-27T09:30:29.795Z,15.40
2019-03-27T09:32:58.215Z,15.40
2019-03-27T09:35:26.637Z,15.70
2019-03-27T09:37:55.026Z,16.10
2019-03-27T09:40:23.499Z,16.10
2019-03-27T09:42:51.911Z,16.00
2019-03-27T09:45:20.336Z,16.00
2019-03-27T09:47:48.737Z,16.40
2019-03-27T09:50:17.147Z,17.20
2019-03-27T09:52:45.544Z,17.80
2019-03-27T09:55:15.836Z,18.50
2019-03-27T09:57:44.215Z,19.30
2019-03-27T10:00:12.884Z,18.30
2019-03-27T10:02:41.293Z,18.80
2019-03-27T10:05:09.941Z,18.90
2019-03-27T10:07:38.344Z,19.30
2019-03-27T10:10:26.104Z,19.00
2019-03-27T10:12:54.487Z,19.40
2019-03-27T10:15:22.891Z,20.20
2019-03-27T10:17:51.315Z,20.70
2019-03-27T10:20:19.748Z,21.10
2019-03-27T10:22:48.131Z,21.80
2019-03-27T10:25:16.595Z,21.50
2019-03-27T10:27:44.990Z,20.30
2019-03-27T10:30:13.767Z,18.90
2019-03-27T10:32:42.156Z,17.60
2019-03-27T10:35:10.644Z,16.60
2019-03-27T10:37:39.076Z,16.00
2019-03-27T10:40:09.169Z,15.60
2019-03-27T10:42:37.551Z,15.30
2019-03-27T10:45:06.502Z,15.00
2019-03-27T10:47:34.964Z,14.80
2019-03-27T10:50:17.023Z,14.50
2019-03-27T10:52:35.487Z,14.80
2019-03-27T10:55:04.833Z,16.10
2019-03-27T10:57:33.275Z,15.90
2019-03-27T11:00:01.687Z,15.50
2019-03-27T11:02:30.090Z,15.10
2019-03-27T11:04:58.513Z,14.80
2019-03-27T11:07:26.909Z,14.70
2019-03-27T11:09:55.310Z,14.60
2019-03-27T11:12:23.705Z,14.60
2019-03-27T11:14:52.110Z,14.50
2019-03-27T11:17:20.541Z,14.40
2019-03-27T11:19:48.950Z,14.30
2019-03-27T11:22:17.351Z,14.30
2019-03-27T11:24:45.827Z,14.30
2019-03-27T11:27:14.237Z,14.20
2019-03-27T11:29:42.815Z,14.30
2019-03-27T11:32:11.215Z,14.00
2019-03-27T11:34:39.608Z,14.00
2019-03-27T11:37:08.030Z,14.20
2019-03-27T11:39:36.440Z,14.10
2019-03-27T11:42:04.839Z,14.00
2019-03-27T11:44:33.265Z,14.00
2019-03-27T11:47:01.705Z,14.00
2019-03-27T11:49:30.088Z,14.10
2019-03-27T11:51:58.574Z,14.30
2019-03-27T11:54:27.047Z,14.50
2019-03-27T11:56:55.502Z,14.50
2019-03-27T11:59:23.891Z,15.00
2019-03-27T12:01:52.300Z,17.50
2019-03-27T12:04:20.717Z,18.30
2019-03-27T12:06:49.137Z,18.10
2019-03-27T12:09:17.536Z,17.40
2019-03-27T12:11:46.003Z,16.70
2019-03-27T12:14:14.449Z,15.70
2019-03-27T12:16:42.941Z,15.10
2019-03-27T12:19:11.353Z,14.70
2019-03-27T12:21:39.771Z,14.60
2019-03-27T12:24:08.179Z,14.70
2019-03-27T12:26:36.711Z,14.80
2019-03-27T12:29:05.205Z,14.80
2019-03-27T12:31:33.656Z,14.40
2019-03-27T12:34:02.076Z,14.00
2019-03-27T12:36:30.632Z,13.90
2019-03-27T12:38:59.047Z,14.20
2019-03-27T12:41:27.477Z,14.40
2019-03-27T12:43:55.942Z,14.40
2019-03-27T12:46:24.322Z,14.30
2019-03-27T12:48:52.747Z,14.30
2019-03-27T12:51:21.165Z,14.20
2019-03-27T12:53:49.590Z,14.20
2019-03-27T12:56:18.000Z,14.40
2019-03-27T12:58:46.413Z,14.50
2019-03-27T13:01:14.900Z,14.80
2019-03-27T13:03:44.663Z,15.00
2019-03-27T13:06:13.293Z,15.20
2019-03-27T13:08:41.718Z,15.10
2019-03-27T13:11:10.144Z,15.10
2019-03-27T13:13:38.566Z,15.00
2019-03-27T13:16:06.979Z,14.90
2019-03-27T13:18:35.393Z,15.00
2019-03-27T13:21:03.864Z,15.20
2019-03-27T13:23:32.278Z,15.70
2019-03-27T13:26:00.679Z,16.10
2019-03-27T13:28:29.113Z,16.30
2019-03-27T13:30:57.524Z,16.10
2019-03-27T13:33:25.959Z,16.00
2019-03-27T13:35:54.355Z,15.70
2019-03-27T13:38:22.769Z,15.40
2019-03-27T13:40:51.163Z,15.00
2019-03-27T13:43:19.588Z,15.10
2019-03-27T13:45:47.984Z,15.30
2019-03-27T13:48:16.405Z,14.90
2019-03-27T13:50:44.838Z,14.80
2019-03-27T13:53:13.226Z,14.80
2019-03-27T13:55:41.654Z,14.80
2019-03-27T13:58:10.056Z,14.80
2019-03-27T14:00:38.480Z,14.80
2019-03-27T14:03:06.949Z,14.60
2019-03-27T14:05:35.355Z,14.60
2019-03-27T14:08:05.607Z,14.40
2019-03-27T14:10:34.101Z,14.50
2019-03-27T14:13:02.631Z,14.60
2019-03-27T14:15:31.104Z,15.10
2019-03-27T14:17:59.518Z,15.40
2019-03-27T14:20:27.930Z,15.30
2019-03-27T14:22:56.347Z,15.40
2019-03-27T14:25:24.741Z,15.10
2019-03-27T14:27:53.169Z,14.70
2019-03-27T14:30:30.159Z,14.70
2019-03-27T14:32:58.576Z,14.70
2019-03-27T14:35:27.023Z,14.90
2019-03-27T14:37:55.410Z,14.80
2019-03-27T14:40:23.864Z,14.80
2019-03-27T14:42:52.289Z,14.80
2019-03-27T14:45:20.715Z,14.90
2019-03-27T14:47:49.116Z,14.80
2019-03-27T14:50:17.545Z,14.80
2019-03-27T14:52:46.061Z,14.90
2019-03-27T14:55:14.952Z,14.90
2019-03-27T14:57:43.382Z,14.60
2019-03-27T15:00:12.891Z,14.40
2019-03-27T15:02:41.432Z,14.30
2019-03-27T15:05:10.192Z,14.20
2019-03-27T15:07:38.732Z,14.20
2019-03-27T15:10:08.870Z,14.40
2019-03-27T15:12:37.746Z,14.30
2019-03-27T15:15:07.991Z,14.20
2019-03-27T15:17:36.654Z,14.10
2019-03-27T15:20:09.843Z,14.10
2019-03-27T15:22:38.242Z,14.40
2019-03-27T15:25:07.910Z,14.70
2019-03-27T15:27:36.315Z,15.50
2019-03-27T15:30:07.570Z,15.40
2019-03-27T15:32:36.145Z,15.00
2019-03-27T15:35:06.044Z,14.60
2019-03-27T15:37:34.456Z,14.30
2019-03-27T15:40:02.971Z,14.30
2019-03-27T15:42:31.401Z,14.20
2019-03-27T15:44:59.981Z,14.20
2019-03-27T15:47:28.378Z,14.30
2019-03-27T15:49:56.790Z,14.20
2019-03-27T15:52:35.795Z,14.10
2019-03-27T15:54:55.369Z,14.10
2019-03-27T15:57:23.879Z,14.20
2019-03-27T15:59:52.271Z,14.10
2019-03-27T16:02:20.685Z,14.00
2019-03-27T16:04:49.080Z,13.90
2019-03-27T16:07:17.643Z,13.80
2019-03-27T16:09:46.039Z,13.90
2019-03-27T16:12:14.551Z,13.80
2019-03-27T16:14:42.955Z,13.60
2019-03-27T16:17:13.710Z,13.50
2019-03-27T16:19:41.556Z,13.60
2019-03-27T16:22:09.967Z,13.60
2019-03-27T16:24:38.382Z,13.70
2019-03-27T16:27:06.803Z,13.80
2019-03-27T16:29:35.217Z,13.80
2019-03-27T16:32:03.900Z,13.70
2019-03-27T16:34:32.316Z,13.70
2019-03-27T16:37:00.728Z,13.60
2019-03-27T16:39:29.190Z,13.60
2019-03-27T16:41:57.726Z,13.60
2019-03-27T16:44:26.151Z,13.60
2019-03-27T16:46:54.617Z,13.50
2019-03-27T16:49:23.034Z,13.40
2019-03-27T16:52:10.795Z,13.30
2019-03-27T16:54:39.842Z,13.40
2019-03-27T16:57:08.266Z,13.40
2019-03-27T16:59:39.692Z,13.40
2019-03-27T17:02:08.138Z,13.30
2019-03-27T17:04:36.555Z,13.20
2019-03-27T17:07:05.114Z,13.20
2019-03-27T17:09:33.540Z,13.10
2019-03-27T17:12:01.960Z,13.20
2019-03-27T17:14:30.392Z,13.10
2019-03-27T17:16:58.871Z,13.10
2019-03-27T17:19:27.291Z,13.10
2019-03-27T17:21:57.837Z,13.00
2019-03-27T17:24:26.222Z,13.00
2019-03-27T17:26:54.644Z,12.90
2019-03-27T17:29:23.043Z,12.80
2019-03-27T17:31:53.125Z,12.80
2019-03-27T17:34:21.522Z,12.60
2019-03-27T17:36:49.950Z,12.40
2019-03-27T17:39:18.380Z,12.30
2019-03-27T17:41:46.805Z,12.20
2019-03-27T17:44:15.207Z,12.20
2019-03-27T17:46:43.659Z,12.20
2019-03-27T17:49:12.068Z,12.20
2019-03-27T17:51:40.529Z,12.10
2019-03-27T17:54:20.020Z,12.10
2019-03-27T17:56:39.186Z,12.00
2019-03-27T17:59:07.605Z,12.00
2019-03-27T18:01:36.090Z,12.00
2019-03-27T18:04:04.633Z,11.90
2019-03-27T18:06:33.031Z,11.80
2019-03-27T18:09:01.465Z,11.80
2019-03-27T18:11:29.867Z,11.70
2019-03-27T18:13:58.294Z,11.60
2019-03-27T18:16:26.711Z,11.50
2019-03-27T18:18:55.128Z,11.50
2019-03-27T18:21:23.939Z,11.40
2019-03-27T18:23:52.442Z,11.40
2019-03-27T18:26:24.553Z,11.30
2019-03-27T18:28:52.967Z,11.20
2019-03-27T18:31:21.373Z,11.20
2019-03-27T18:33:49.851Z,11.10
2019-03-27T18:36:18.297Z,11.00
2019-03-27T18:38:46.715Z,11.00
2019-03-27T18:41:15.186Z,11.00
2019-03-27T18:43:43.698Z,10.90
2019-03-27T18:46:12.337Z,10.80
2019-03-27T18:48:40.759Z,10.80
2019-03-27T18:51:09.164Z,10.80
2019-03-27T18:53:37.666Z,10.80
2019-03-27T18:56:06.164Z,10.80
2019-03-27T18:58:34.598Z,10.60
2019-03-27T19:01:03.035Z,10.60
2019-03-27T19:03:31.448Z,10.60
2019-03-27T19:05:59.885Z,10.60
2019-03-27T19:08:28.282Z,10.70
2019-03-27T19:10:56.702Z,10.70
2019-03-27T19:13:25.115Z,10.70
2019-03-27T19:15:53.544Z,10.50
2019-03-27T19:18:21.994Z,10.30
2019-03-27T19:20:50.503Z,10.20
2019-03-27T19:23:18.903Z,10.00
2019-03-27T19:25:47.382Z,9.80
2019-03-27T19:28:15.802Z,9.80
2019-03-27T19:30:44.226Z,9.80
2019-03-27T19:33:12.684Z,9.70
2019-03-27T19:35:41.104Z,9.70
2019-03-27T19:38:09.589Z,9.80
2019-03-27T19:40:38.026Z,9.80
2019-03-27T19:43:06.431Z,9.50
2019-03-27T19:45:34.934Z,9.30
2019-03-27T19:48:03.348Z,9.20
2019-03-27T19:50:31.759Z,9.20
2019-03-27T19:53:00.152Z,9.20
2019-03-27T19:55:28.582Z,9.30
2019-03-27T19:57:56.970Z,9.20
2019-03-27T20:00:25.836Z,9.10
2019-03-27T20:02:54.242Z,9.20
2019-03-27T20:05:22.690Z,9.20
2019-03-27T20:07:51.075Z,9.10
2019-03-27T20:10:19.490Z,8.90
2019-03-27T20:12:47.909Z,8.80
2019-03-27T20:15:16.479Z,8.80
2019-03-27T20:17:44.908Z,8.70
2019-03-27T20:20:13.648Z,8.60
2019-03-27T20:22:42.113Z,8.60
2019-03-27T20:25:13.338Z,8.60
2019-03-27T20:27:41.186Z,8.60
2019-03-27T20:30:13.136Z,8.70
2019-03-27T20:32:41.821Z,8.80
2019-03-27T20:35:10.868Z,8.70
2019-03-27T20:37:39.291Z,8.50
2019-03-27T20:40:08.243Z,8.40
2019-03-27T20:46:05.227Z,8.20
2019-03-27T20:48:33.670Z,8.00
2019-03-27T20:51:02.124Z,7.90
2019-03-27T20:53:30.509Z,7.80
2019-03-27T20:55:58.931Z,7.90
2019-03-27T20:58:27.336Z,8.10
2019-03-27T21:00:55.755Z,8.20
2019-03-27T21:03:24.160Z,8.20
2019-03-27T21:05:52.586Z,8.20
2019-03-27T21:08:21.048Z,8.30
2019-03-27T21:10:49.552Z,8.30
2019-03-27T21:13:17.943Z,8.40
2019-03-27T21:15:46.431Z,8.20
2019-03-27T21:18:14.836Z,8.10
2019-03-27T21:20:43.325Z,8.10
2019-03-27T21:23:11.862Z,8.00
2019-03-27T21:25:40.271Z,8.00
2019-03-27T21:28:08.675Z,7.90
2019-03-27T21:30:37.093Z,7.90
2019-03-27T21:33:05.488Z,7.90
2019-03-27T21:35:33.914Z,7.90
2019-03-27T21:38:02.308Z,7.90
2019-03-27T21:40:30.727Z,7.70
2019-03-27T21:42:59.300Z,7.70
2019-03-27T21:45:27.724Z,7.70
2019-03-27T21:47:56.141Z,7.70
2019-03-27T21:50:24.555Z,7.60
2019-03-27T21:53:00.482Z,7.60
2019-03-27T21:55:23.358Z,7.60
2019-03-27T21:57:51.879Z,7.60
2019-03-27T22:00:37.609Z,7.50
2019-03-27T22:03:07.047Z,7.30
2019-03-27T22:05:35.550Z,7.20
2019-03-27T22:08:04.171Z,7.10
2019-03-27T22:10:32.858Z,7.10
2019-03-27T22:13:01.258Z,7.10
2019-03-27T22:15:29.671Z,7.20
2019-03-27T22:17:58.066Z,7.20
2019-03-27T22:20:26.504Z,7.00
2019-03-27T22:22:54.941Z,6.70
2019-03-27T22:25:35.465Z,6.50
2019-03-27T22:27:53.476Z,6.50
2019-03-27T22:30:21.932Z,6.60
2019-03-27T22:32:50.383Z,6.80
2019-03-27T22:35:18.826Z,6.80
2019-03-27T22:37:47.227Z,6.90
2019-03-27T22:40:15.659Z,6.80
2019-03-27T22:42:45.698Z,6.70
2019-03-27T22:45:14.254Z,6.60
2019-03-27T22:47:42.675Z,6.60
2019-03-27T22:50:12.645Z,6.50
2019-03-27T22:52:41.043Z,6.50
2019-03-27T22:55:09.534Z,6.50
2019-03-27T22:57:37.943Z,6.40
2019-03-27T23:00:09.546Z,6.40
2019-03-27T23:02:38.154Z,6.40
2019-03-27T23:05:07.203Z,6.30
2019-03-27T23:07:35.640Z,6.30
2019-03-27T23:10:06.054Z,6.30
2019-03-27T23:12:35.220Z,6.20
2019-03-27T23:15:05.450Z,6.00
2019-03-27T23:17:33.847Z,6.00
2019-03-27T23:20:02.272Z,6.00
2019-03-27T23:22:30.685Z,6.10
2019-03-27T23:24:59.150Z,6.10
2019-03-27T23:27:27.545Z,5.80
2019-03-27T23:29:55.959Z,5.80
2019-03-27T23:32:24.363Z,5.80
2019-03-27T23:34:52.788Z,5.90
2019-03-27T23:37:21.189Z,5.90
2019-03-27T23:39:49.662Z,5.90
2019-03-27T23:42:18.066Z,5.90
2019-03-27T23:44:46.493Z,5.80
2019-03-27T23:47:14.895Z,5.70
2019-03-27T23:49:43.354Z,5.70
2019-03-27T23:52:11.777Z,5.60
2019-03-27T23:54:40.183Z,5.60
2019-03-27T23:57:08.591Z,5.70
2019-03-27T23:59:37.030Z,5.70
